Time;durP1;ratioP1;P1;durP2;ratioP2;P2;SDS_P1;SDS_P2;PMS_P1;PMS_P2;Temp;Humidity;BMP_temperature;BMP_pressure;BME280_temperature;BME280_humidity;BME280_pressure;Samples;Min_cycle;Max_cycle;Signal;HPM_P1;HPM_P2
2021/06/13 00:00:24;;;;;;;0.50;0.50;;;;;;;16.62;64.20;97603.34;29395;248;63009;-71
2021/06/13 00:00:57;;;;;;;0.50;0.50;;;;;;;16.60;64.37;97598.19;29394;296;64005;-69
2021/06/13 00:01:29;;;;;;;0.50;0.50;;;;;;;16.59;64.44;97606.72;29395;203;63014;-71
2021/06/13 00:02:01;;;;;;;0.50;0.50;;;;;;;16.56;64.33;97602.69;29395;214;63005;-71
2021/06/13 00:02:32;;;;;;;0.50;0.50;;;;;;;16.55;64.72;97605.72;29395;222;63009;-61
2021/06/13 00:03:04;;;;;;;0.50;0.50;;;;;;;16.54;64.43;97602.19;29395;208;63005;-71
2021/06/13 00:03:36;;;;;;;0.50;0.50;;;;;;;16.52;64.60;97601.69;29395;239;63009;-70
2021/06/13 00:04:08;;;;;;;0.50;0.50;;;;;;;16.50;64.97;97606.66;29395;231;63004;-70
2021/06/13 00:04:39;;;;;;;0.50;0.50;;;;;;;16.47;65.19;97601.81;29395;219;63009;-70
2021/06/13 00:05:13;;;;;;;0.50;0.50;;;;;;;16.43;64.61;97596.16;29395;197;63004;-69
2021/06/13 00:05:44;;;;;;;0.47;0.47;;;;;;;16.46;64.93;97611.16;29395;322;63009;-70
2021/06/13 00:06:16;;;;;;;0.50;0.50;;;;;;;16.47;64.49;97606.47;29394;202;64004;-70
2021/06/13 00:06:47;;;;;;;0.50;0.50;;;;;;;16.46;64.68;97611.16;29395;224;63008;-70
2021/06/13 00:07:18;;;;;;;0.50;0.50;;;;;;;16.48;64.92;97608.09;29395;236;63009;-73
2021/06/13 00:07:53;;;;;;;0.47;0.47;;;;;;;16.53;64.40;97606.03;29395;255;63009;-69
2021/06/13 00:08:24;;;;;;;1.50;1.50;;;;;;;16.53;63.94;97606.03;29394;253;64005;-68
2021/06/13 00:08:55;;;;;;;0.50;0.50;;;;;;;16.51;64.53;97607.47;29395;263;63009;-70
2021/06/13 00:09:26;;;;;;;0.50;0.50;;;;;;;16.50;64.62;97601.19;29395;225;63005;-70
2021/06/13 00:09:57;;;;;;;0.50;0.50;;;;;;;16.48;64.64;97608.91;29395;226;63018;-69
2021/06/13 00:10:29;;;;;;;0.50;0.50;;;;;;;16.47;64.59;97604.56;29395;266;63005;-69
2021/06/13 00:11:01;;;;;;;0.47;0.47;;;;;;;16.46;64.87;97608.41;29395;207;63009;-71
2021/06/13 00:11:33;;;;;;;0.50;0.50;;;;;;;16.47;64.66;97618.25;29395;233;63004;-69
2021/06/13 00:12:10;;;;;;;0.50;0.50;;;;;;;16.46;64.97;97616.63;29395;319;63009;-70
2021/06/13 00:12:41;;;;;;;0.50;0.50;;;;;;;16.46;64.55;97605.66;29395;252;63004;-69
2021/06/13 00:13:12;;;;;;;0.50;0.50;;;;;;;16.45;64.73;97619.69;29395;213;63013;-70
2021/06/13 00:13:44;;;;;;;0.50;0.50;;;;;;;16.42;64.94;97610.97;29394;219;64004;-68
2021/06/13 00:14:17;;;;;;;0.50;0.50;;;;;;;16.43;64.78;97606.28;29395;285;63008;-70
2021/06/13 00:14:48;;;;;;;0.50;0.50;;;;;;;16.45;64.71;97609.53;29395;375;63005;-75
2021/06/13 00:15:23;;;;;;;0.50;0.50;;;;;;;16.48;64.33;97617.13;29395;264;63009;-69
2021/06/13 00:15:55;;;;;;;0.50;0.50;;;;;;;16.50;64.40;97606.66;29394;313;64005;-69
2021/06/13 00:16:26;;;;;;;0.50;0.50;;;;;;;16.50;64.74;97612.16;29395;203;63009;-71
2021/06/13 00:16:58;;;;;;;0.50;0.50;;;;;;;16.50;65.08;97614.87;29395;202;63007;-70
2021/06/13 00:17:29;;;;;;;0.50;0.50;;;;;;;16.49;64.91;97607.78;29395;216;63019;-70
2021/06/13 00:18:00;;;;;;;0.50;0.50;;;;;;;16.50;64.65;97612.16;29395;380;63000;-69
2021/06/13 00:18:32;;;;;;;0.50;0.50;;;;;;;16.52;64.83;97612.62;29395;253;63009;-72
2021/06/13 00:19:04;;;;;;;0.50;0.50;;;;;;;16.59;63.93;97615.75;29394;323;64004;-70
2021/06/13 00:19:35;;;;;;;0.50;0.50;;;;;;;16.71;63.41;97613.25;29395;300;63009;-72
2021/06/13 00:20:21;;;;;;;0.50;0.50;;;;;;;16.77;62.64;97618.59;29395;265;63004;-69
2021/06/13 00:20:53;;;;;;;0.50;0.50;;;;;;;16.80;62.79;97615.22;29395;215;63008;-72
2021/06/13 00:21:25;;;;;;;0.50;0.50;;;;;;;16.79;62.77;97613.59;29395;198;63004;-70
2021/06/13 00:21:56;;;;;;;0.50;0.50;;;;;;;16.79;62.74;97602.66;29395;357;63009;-70
2021/06/13 00:22:28;;;;;;;0.50;0.50;;;;;;;16.74;62.70;97612.62;29395;224;63005;-70
2021/06/13 00:22:59;;;;;;;0.50;0.50;;;;;;;16.72;63.14;97609.38;29395;197;63009;-76
2021/06/13 00:23:31;;;;;;;0.40;0.40;;;;;;;16.74;63.56;97612.62;29394;225;64005;-74
2021/06/13 00:24:04;;;;;;;0.50;0.50;;;;;;;16.74;63.24;97611.81;29395;234;63005;-70
2021/06/13 00:24:36;;;;;;;0.70;0.70;;;;;;;16.84;62.67;97605.25;29395;248;63005;-75
2021/06/13 00:25:09;;;;;;;0.50;0.50;;;;;;;16.85;62.66;97607.69;29395;244;63016;-69
2021/06/13 00:25:41;;;;;;;0.45;0.45;;;;;;;16.83;62.65;97618.16;29394;282;64004;-69
2021/06/13 00:26:12;;;;;;;0.50;0.50;;;;;;;16.80;63.24;97615.22;29395;277;63009;-70
2021/06/13 00:26:44;;;;;;;0.50;0.50;;;;;;;16.76;63.01;97615.03;29395;225;63004;-69
2021/06/13 00:27:15;;;;;;;0.50;0.50;;;;;;;16.72;63.08;97612.12;29395;234;63009;-70
2021/06/13 00:27:47;;;;;;;0.50;0.50;;;;;;;16.72;62.96;97609.38;29395;239;63004;-72
2021/06/13 00:28:18;;;;;;;0.40;0.40;;;;;;;16.72;63.54;97612.12;29395;295;63008;-68
2021/06/13 00:28:53;;;;;;;0.50;0.50;;;;;;;16.72;63.37;97612.12;29395;225;63004;-69
2021/06/13 00:29:24;;;;;;;0.50;0.50;;;;;;;16.71;63.67;97607.75;29395;357;63009;-70
2021/06/13 00:29:55;;;;;;;0.50;0.50;;;;;;;16.74;63.92;97612.62;29395;224;63005;-73
2021/06/13 00:30:27;;;;;;;0.50;0.50;;;;;;;16.75;63.78;97607.94;29395;239;63020;-70
2021/06/13 00:30:59;;;;;;;0.45;0.45;;;;;;;16.77;63.40;97615.84;29394;240;64005;-70
2021/06/13 00:31:30;;;;;;;0.50;0.50;;;;;;;16.77;63.69;97610.38;29395;317;63009;-70
2021/06/13 00:32:04;;;;;;;0.50;0.50;;;;;;;16.78;63.23;97601.03;29394;258;64005;-69
2021/06/13 00:32:35;;;;;;;0.50;0.50;;;;;;;16.77;63.14;97610.38;29395;310;63018;-70
2021/06/13 00:33:07;;;;;;;0.47;0.47;;;;;;;16.74;62.99;97617.28;29395;241;63009;-77
2021/06/13 00:33:38;;;;;;;0.43;0.43;;;;;;;16.80;63.02;97616.03;29394;247;64009;-71
2021/06/13 00:34:09;;;;;;;0.50;0.50;;;;;;;16.81;63.21;97617.66;29395;241;63004;-70
2021/06/13 00:34:41;;;;;;;0.50;0.50;;;;;;;16.84;63.28;97616.22;29395;328;63009;-68
2021/06/13 00:35:14;;;;;;;0.50;0.50;;;;;;;16.86;62.72;97609.28;29395;235;63009;-71
2021/06/13 00:35:45;;;;;;;0.50;0.50;;;;;;;16.87;62.97;97615.59;29395;241;63008;-70
2021/06/13 00:36:17;;;;;;;0.50;0.50;;;;;;;16.90;62.76;97612.22;29395;279;63011;-74
2021/06/13 00:36:48;;;;;;;0.50;0.50;;;;;;;17.05;61.33;97606.28;29395;209;63009;-75
2021/06/13 00:37:19;;;;;;;0.50;0.50;;;;;;;17.05;61.20;97612.59;29395;269;63005;-71
2021/06/13 00:37:51;;;;;;;0.50;0.50;;;;;;;17.07;61.42;97606.78;29395;202;63009;-72
2021/06/13 00:38:22;;;;;;;0.50;0.50;;;;;;;17.05;60.98;97609.03;29394;205;64005;-70
2021/06/13 00:38:54;;;;;;;0.50;0.50;;;;;;;17.01;62.11;97619.00;29394;228;64009;-70
2021/06/13 00:39:25;;;;;;;0.50;0.50;;;;;;;16.95;62.10;97606.59;29395;202;63005;-70
2021/06/13 00:39:58;;;;;;;0.50;0.50;;;;;;;16.92;62.31;97610.78;29395;295;63009;-69
2021/06/13 00:40:30;;;;;;;0.50;0.50;;;;;;;16.90;62.19;97617.69;29395;219;63005;-70
2021/06/13 00:41:02;;;;;;;0.50;0.50;;;;;;;16.88;62.57;97622.69;29395;211;63009;-71
2021/06/13 00:41:33;;;;;;;0.47;0.47;;;;;;;16.88;62.30;97617.19;29394;238;64004;-69
2021/06/13 00:42:05;;;;;;;0.50;0.50;;;;;;;16.90;62.50;97624.00;29395;222;63009;-69
2021/06/13 00:42:37;;;;;;;0.50;0.50;;;;;;;16.98;62.09;97619.69;29395;196;63004;-73
2021/06/13 00:43:11;;;;;;;0.50;0.50;;;;;;;17.13;60.66;97624.72;29395;226;63009;-69
2021/06/13 00:43:43;;;;;;;0.50;0.50;;;;;;;17.24;59.43;97620.56;29395;227;63004;-73
2021/06/13 00:44:14;;;;;;;0.50;0.50;;;;;;;17.32;59.66;97616.25;29395;245;63009;-69
2021/06/13 00:44:45;;;;;;;0.50;0.50;;;;;;;17.38;59.04;97610.25;29395;223;63005;-68
2021/06/13 00:45:17;;;;;;;0.50;0.50;;;;;;;17.42;59.35;97610.44;29395;324;63009;-66
2021/06/13 00:45:49;;;;;;;0.40;0.40;;;;;;;17.46;58.94;97622.37;29395;276;63005;-53
2021/06/13 00:46:20;;;;;;;0.50;0.50;;;;;;;17.50;58.64;97615.13;29394;210;64009;-77
2021/06/13 00:46:51;;;;;;;0.50;0.50;;;;;;;17.49;58.92;97612.72;29395;210;63005;-76
2021/06/13 00:47:23;;;;;;;0.50;0.50;;;;;;;17.45;59.15;97614.47;29395;302;63009;-70
2021/06/13 00:47:54;;;;;;;0.50;0.50;;;;;;;17.39;59.19;97611.88;29395;303;63005;-68
2021/06/13 00:48:25;;;;;;;0.50;0.50;;;;;;;17.33;59.72;97618.62;29395;293;63009;-70
2021/06/13 00:48:57;;;;;;;0.50;0.50;;;;;;;17.30;59.54;97608.31;29395;241;63004;-72
2021/06/13 00:49:28;;;;;;;0.50;0.50;;;;;;;17.27;59.86;97613.63;29395;342;63004;-73
2021/06/13 00:50:00;;;;;;;0.40;0.40;;;;;;;17.26;60.39;97610.09;29394;204;64004;-75
2021/06/13 00:50:45;;;;;;;0.50;0.50;;;;;;;17.27;60.12;97619.94;29394;206;64024;-72
2021/06/13 00:51:17;;;;;;;0.50;0.50;;;;;;;17.29;59.89;97609.47;29394;198;64004;-73
2021/06/13 00:51:48;;;;;;;0.50;0.50;;;;;;;17.26;59.98;97618.31;29395;257;63009;-68
2021/06/13 00:52:19;;;;;;;0.50;0.50;;;;;;;17.21;60.41;97615.72;29395;334;63005;-68
2021/06/13 00:52:51;;;;;;;0.50;0.50;;;;;;;17.16;60.25;97613.13;29395;203;63009;-70
2021/06/13 00:53:22;;;;;;;0.50;0.50;;;;;;;17.12;60.80;97614.06;29395;204;63005;-72
2021/06/13 00:53:54;;;;;;;0.50;0.50;;;;;;;17.11;60.93;97616.00;29395;213;63009;-70
2021/06/13 00:54:27;;;;;;;0.50;0.50;;;;;;;17.11;60.89;97612.44;29395;295;63005;-71
2021/06/13 00:54:59;;;;;;;0.50;0.50;;;;;;;17.08;61.13;97614.69;29395;286;63014;-74
2021/06/13 00:55:32;;;;;;;0.50;0.50;;;;;;;17.09;61.04;97612.75;29395;223;63005;-73
2021/06/13 00:56:04;;;;;;;0.50;0.50;;;;;;;17.08;60.78;97605.66;29394;229;64009;-77
2021/06/13 00:56:35;;;;;;;0.50;0.50;;;;;;;17.13;60.74;97613.75;29395;215;63004;-72
2021/06/13 00:57:07;;;;;;;0.40;0.40;;;;;;;17.13;60.64;97611.00;29394;267;63998;-70
2021/06/13 00:57:38;;;;;;;0.60;0.60;;;;;;;17.14;60.76;97611.81;29395;222;63004;-73
2021/06/13 00:58:10;;;;;;;0.50;0.50;;;;;;;17.13;60.97;97616.50;29395;282;63009;-72
2021/06/13 00:58:41;;;;;;;0.50;0.50;;;;;;;17.12;60.98;97606.66;29395;205;63004;-71
2021/06/13 00:59:13;;;;;;;0.50;0.50;;;;;;;17.11;61.19;97610.50;29395;215;63009;-71
2021/06/13 00:59:45;;;;;;;0.50;0.50;;;;;;;17.10;60.96;97608.91;29395;366;63005;-69
2021/06/13 01:00:20;;;;;;;0.50;0.50;;;;;;;17.08;60.95;97611.16;29395;236;63009;-70
2021/06/13 01:00:52;;;;;;;0.50;0.50;;;;;;;17.07;61.35;97610.34;29395;323;63005;-69
2021/06/13 01:01:23;;;;;;;0.50;0.50;;;;;;;17.05;61.42;97611.78;29395;329;63009;-72
2021/06/13 01:01:55;;;;;;;0.45;0.45;;;;;;;17.08;61.09;97606.47;29395;203;63005;-72
2021/06/13 01:02:26;;;;;;;0.50;0.50;;;;;;;17.11;60.85;97610.50;29394;233;64009;-72
2021/06/13 01:02:58;;;;;;;0.50;0.50;;;;;;;17.13;60.76;97611.00;29395;202;63005;-69
2021/06/13 01:03:29;;;;;;;0.50;0.50;;;;;;;17.11;61.05;97610.50;29395;204;63009;-72
2021/06/13 01:04:01;;;;;;;0.40;0.40;;;;;;;17.11;61.16;97616.00;29395;196;63004;-70
2021/06/13 01:04:32;;;;;;;0.50;0.50;;;;;;;17.08;61.38;97608.41;29395;204;63009;-69
2021/06/13 01:05:06;;;;;;;0.50;0.50;;;;;;;17.06;61.33;97607.91;29395;233;63016;-75
2021/06/13 01:05:38;;;;;;;0.50;0.50;;;;;;;17.04;61.20;97610.16;29395;372;63009;-70
2021/06/13 01:06:11;;;;;;;0.50;0.50;;;;;;;17.03;61.25;97614.03;29395;359;63004;-75
2021/06/13 01:07:29;;;;;;;0.50;0.50;;;;;;;17.02;61.31;97609.66;29395;221;63008;-71
2021/06/13 01:09:04;;;;;;;0.50;0.50;;;;;;;16.96;61.64;97610.97;29394;327;64005;-70
2021/06/13 01:09:42;;;;;;;0.50;0.50;;;;;;;16.96;61.95;97619.19;29394;222;64009;-70
2021/06/13 01:10:49;;;;;;;0.50;0.50;;;;;;;16.95;61.72;97609.34;29395;199;63008;-59
2021/06/13 01:11:34;;;;;;;0.50;0.50;;;;;;;16.92;61.93;97612.72;29394;213;64009;-68
2021/06/13 01:12:18;;;;;;;0.50;0.50;;;;;;;16.90;62.03;97618.50;29394;202;64004;-73
2021/06/13 01:13:06;;;;;;;0.50;0.50;;;;;;;16.91;62.34;97611.09;29394;227;64009;-70
2021/06/13 01:14:04;;;;;;;0.50;0.50;;;;;;;16.98;61.23;97611.44;29395;222;63004;-70
2021/06/13 01:15:06;;;;;;;0.50;0.50;;;;;;;17.06;60.48;97611.47;29395;227;63009;-74
2021/06/13 01:15:45;;;;;;;0.50;0.50;;;;;;;17.07;60.41;97613.06;29416;213;64009;-55
2021/06/13 01:16:57;;;;;;;0.50;0.50;;;;;;;17.05;60.78;97614.53;29395;243;63005;-71
2021/06/13 01:17:51;;;;;;;0.50;0.50;;;;;;;17.15;60.43;97610.69;29416;226;64005;-79
2021/06/13 01:18:29;;;;;;;0.50;0.50;;;;;;;17.19;60.14;97614.41;29395;222;63009;-70
2021/06/13 01:19:21;;;;;;;0.50;0.50;;;;;;;17.18;60.05;97613.59;29395;212;63004;-75
2021/06/13 01:20:08;;;;;;;0.50;0.50;;;;;;;17.18;60.19;97610.06;29395;216;63009;-69
2021/06/13 01:20:51;;;;;;;0.50;0.50;;;;;;;17.12;60.20;97612.12;29394;218;64004;-70
2021/06/13 01:21:28;;;;;;;0.50;0.50;;;;;;;17.07;60.63;97620.50;29395;208;63008;-69
2021/06/13 01:22:39;;;;;;;0.50;0.50;;;;;;;17.04;60.72;97610.97;29395;231;63005;-74
2021/06/13 01:24:02;;;;;;;0.50;0.50;;;;;;;17.07;60.78;97615.00;29395;225;63009;-73
2021/06/13 01:25:07;;;;;;;0.50;0.50;;;;;;;17.03;61.07;97611.28;29377;210;125005;-70
2021/06/13 01:26:10;;;;;;;0.50;0.50;;;;;;;17.01;61.09;97610.78;29373;227;63009;-70
2021/06/13 01:27:20;;;;;;;0.50;0.50;;;;;;;16.97;61.37;97615.31;29394;209;64009;-74
2021/06/13 01:28:24;;;;;;;0.50;0.50;;;;;;;16.95;61.14;97612.09;29416;223;64004;-71
2021/06/13 01:29:02;;;;;;;0.50;0.50;;;;;;;16.92;61.23;97619.00;29395;231;63016;-71
2021/06/13 01:29:39;;;;;;;0.50;0.50;;;;;;;16.91;61.55;97611.91;29395;215;63005;-67
2021/06/13 01:30:11;;;;;;;0.50;0.50;;;;;;;16.87;61.19;97616.41;29394;264;64009;-69
2021/06/13 01:30:44;;;;;;;0.50;0.50;;;;;;;16.85;61.76;97623.31;29395;224;63005;-69
2021/06/13 01:31:18;;;;;;;0.50;0.50;;;;;;;16.79;61.76;97613.59;29395;210;63009;-71
2021/06/13 01:31:55;;;;;;;0.50;0.50;;;;;;;16.75;61.87;97616.97;29395;210;63005;-69
2021/06/13 01:32:30;;;;;;;0.50;0.50;;;;;;;16.72;62.00;97614.87;29395;206;63009;-70
2021/06/13 01:33:07;;;;;;;0.40;0.40;;;;;;;16.69;62.38;97612.75;29394;229;64004;-69
2021/06/13 01:33:40;;;;;;;0.50;0.50;;;;;;;16.68;62.30;97613.88;29395;246;63009;-71
2021/06/13 01:34:16;;;;;;;0.47;0.47;;;;;;;16.67;62.43;97617.75;29395;218;63004;-68
2021/06/13 01:35:04;;;;;;;0.50;0.50;;;;;;;16.66;62.22;97610.63;29395;339;63009;-70
2021/06/13 01:35:37;;;;;;;0.50;0.50;;;;;;;16.61;62.50;97610.75;29395;250;63004;-68
2021/06/13 01:36:09;;;;;;;0.50;0.50;;;;;;;16.56;62.59;97610.91;29395;235;63009;-68
2021/06/13 01:36:42;;;;;;;0.50;0.50;;;;;;;16.53;62.66;97611.53;29395;229;63010;-61
2021/06/13 01:37:17;;;;;;;0.50;0.50;;;;;;;16.49;62.80;97613.25;29394;218;64009;-69
2021/06/13 01:37:52;;;;;;;0.50;0.50;;;;;;;16.46;63.00;97613.88;29395;198;63005;-69
2021/06/13 01:38:23;;;;;;;0.50;0.50;;;;;;;16.45;62.92;97619.69;29394;199;64009;-73
2021/06/13 01:38:57;;;;;;;0.50;0.50;;;;;;;16.45;63.07;97608.72;29395;290;63005;-73
2021/06/13 01:39:30;;;;;;;0.50;0.50;;;;;;;16.47;62.84;97615.50;29395;210;63009;-71
2021/06/13 01:40:12;;;;;;;0.50;0.50;;;;;;;16.46;62.81;97605.66;29395;203;63005;-69
2021/06/13 01:40:45;;;;;;;0.50;0.50;;;;;;;16.46;62.30;97600.19;29394;217;64009;-70
2021/06/13 01:41:23;;;;;;;0.50;0.50;;;;;;;16.45;62.65;97606.78;29395;227;63004;-67
2021/06/13 01:41:58;;;;;;;0.50;0.50;;;;;;;16.42;62.65;97605.50;29395;220;63009;-69
2021/06/13 01:42:33;;;;;;;0.50;0.50;;;;;;;16.41;61.99;97608.53;29395;241;63004;-68
2021/06/13 01:43:06;;;;;;;0.50;0.50;;;;;;;16.38;62.87;97614.63;29395;213;63008;-68
2021/06/13 01:43:38;;;;;;;0.50;0.50;;;;;;;16.36;62.74;97605.91;29395;244;63004;-69
2021/06/13 01:44:10;;;;;;;0.50;0.50;;;;;;;16.31;63.38;97606.03;29394;332;64009;-69
2021/06/13 01:44:43;;;;;;;0.50;0.50;;;;;;;16.29;63.42;97611.03;29395;211;63005;-70
2021/06/13 01:45:19;;;;;;;0.50;0.50;;;;;;;16.26;63.38;97607.00;29395;252;63009;-71
2021/06/13 01:45:53;;;;;;;0.50;0.50;;;;;;;16.27;63.77;97613.28;29394;220;64005;-75
2021/06/13 01:46:30;;;;;;;0.50;0.50;;;;;;;16.28;63.32;97610.25;29395;239;63009;-78
2021/06/13 01:47:03;;;;;;;0.50;0.50;;;;;;;16.36;61.83;97612.22;29395;236;63000;-69
2021/06/13 01:47:36;;;;;;;0.50;0.50;;;;;;;16.34;62.08;97608.16;29395;225;63009;-71
2021/06/13 01:48:11;;;;;;;0.50;0.50;;;;;;;16.34;62.34;97605.44;29395;212;63004;-68
2021/06/13 01:48:43;;;;;;;0.50;0.50;;;;;;;16.31;62.97;97608.78;29395;245;63009;-68
2021/06/13 01:49:17;;;;;;;0.50;0.50;;;;;;;16.30;62.98;97607.16;29395;329;63004;-69
2021/06/13 01:49:50;;;;;;;0.50;0.50;;;;;;;16.27;62.85;97603.16;29395;203;63009;-69
2021/06/13 01:50:24;;;;;;;0.50;0.50;;;;;;;16.26;63.10;97611.69;29395;202;63017;-69
2021/06/13 01:51:00;;;;;;;0.50;0.50;;;;;;;16.25;62.73;97610.06;29394;214;64008;-68
2021/06/13 01:51:32;;;;;;;0.50;0.50;;;;;;;16.21;63.28;97604.41;29395;320;63005;-69
2021/06/13 01:52:05;;;;;;;0.50;0.50;;;;;;;16.19;63.50;97612.12;29395;217;63009;-69
2021/06/13 01:52:40;;;;;;;0.50;0.50;;;;;;;16.17;63.57;97605.31;29395;225;63005;-69
2021/06/13 01:53:14;;;;;;;0.50;0.50;;;;;;;16.16;63.51;97609.19;29395;207;63009;-69
2021/06/13 01:53:46;;;;;;;0.60;0.60;;;;;;;16.15;63.50;97604.81;29395;219;63013;-69
2021/06/13 01:54:19;;;;;;;0.50;0.50;;;;;;;16.14;63.38;97605.94;29395;203;63015;-71
2021/06/13 01:54:51;;;;;;;0.50;0.50;;;;;;;16.13;63.43;97607.06;29395;196;63005;-69
2021/06/13 01:55:25;;;;;;;0.50;0.50;;;;;;;16.11;63.46;97614.78;29395;210;63009;-68
2021/06/13 01:55:58;;;;;;;0.50;0.50;;;;;;;16.08;63.70;97606.06;29394;335;64004;-71
2021/06/13 01:56:30;;;;;;;0.50;0.50;;;;;;;16.06;63.36;97610.22;29395;223;63009;-69
2021/06/13 01:57:03;;;;;;;0.50;0.50;;;;;;;16.05;63.70;97612.16;29395;241;63004;-68
2021/06/13 01:57:39;;;;;;;0.50;0.50;;;;;;;16.02;63.89;97612.78;29395;202;63009;-68
2021/06/13 01:58:13;;;;;;;0.50;0.50;;;;;;;16.02;63.59;97606.50;29395;215;63004;-69
2021/06/13 01:58:46;;;;;;;0.50;0.50;;;;;;;16.00;63.79;97609.53;29395;251;63008;-69
2021/06/13 01:59:20;;;;;;;0.50;0.50;;;;;;;16.00;63.67;97606.81;29395;207;63005;-70
2021/06/13 01:59:57;;;;;;;0.50;0.50;;;;;;;15.98;64.08;97611.78;29395;233;63009;-69
2021/06/13 02:00:29;;;;;;;0.50;0.50;;;;;;;15.96;63.86;97608.53;29394;207;64005;-68
2021/06/13 02:01:01;;;;;;;0.50;0.50;;;;;;;15.96;64.10;97608.53;29395;309;63009;-62
2021/06/13 02:01:32;;;;;;;0.50;0.50;;;;;;;15.96;64.18;97603.06;29395;206;63005;-69
2021/06/13 02:02:05;;;;;;;0.50;0.50;;;;;;;15.97;64.02;97614.81;29395;218;63009;-69
2021/06/13 02:02:41;;;;;;;1.48;1.48;;;;;;;15.94;64.05;97610.78;29395;381;63005;-69
2021/06/13 02:03:14;;;;;;;0.50;0.50;;;;;;;15.92;63.99;97613.03;29395;257;63009;-69
2021/06/13 02:03:50;;;;;;;0.50;0.50;;;;;;;15.91;64.17;97611.41;29395;214;63004;-68
2021/06/13 02:04:24;;;;;;;0.50;0.50;;;;;;;15.90;64.36;97609.81;29395;239;63009;-68
2021/06/13 02:04:55;;;;;;;0.50;0.50;;;;;;;15.92;64.43;97607.56;29394;203;64004;-69
2021/06/13 02:05:29;;;;;;;0.50;0.50;;;;;;;15.91;64.98;97616.91;29394;226;64009;-70
2021/06/13 02:06:02;;;;;;;0.50;0.50;;;;;;;15.89;64.69;97608.19;29394;211;64004;-70
2021/06/13 02:06:37;;;;;;;0.50;0.50;;;;;;;15.87;64.88;97615.09;29395;378;63009;-69
2021/06/13 02:07:10;;;;;;;0.40;0.40;;;;;;;15.86;65.13;97603.31;29395;212;63005;-74
2021/06/13 02:07:43;;;;;;;0.50;0.50;;;;;;;15.88;64.88;97605.75;29395;229;63009;-70
2021/06/13 02:08:14;;;;;;;0.40;0.40;;;;;;;15.88;64.87;97603.03;29395;362;63005;-68
2021/06/13 02:08:48;;;;;;;0.60;0.60;;;;;;;15.88;65.07;97606.56;29395;227;63009;-68
2021/06/13 02:09:21;;;;;;;0.50;0.50;;;;;;;15.89;64.65;97607.37;29395;214;63005;-72
2021/06/13 02:09:53;;;;;;;0.40;0.40;;;;;;;15.89;64.85;97608.19;29395;244;63009;-70
2021/06/13 02:10:26;;;;;;;0.50;0.50;;;;;;;15.91;64.61;97611.41;29395;264;63005;-70
2021/06/13 02:10:58;;;;;;;0.43;0.43;;;;;;;15.92;64.28;97615.78;29394;241;64009;-72
2021/06/13 02:11:32;;;;;;;0.47;0.47;;;;;;;15.98;64.56;97608.22;29394;202;64004;-72
2021/06/13 02:12:06;;;;;;;0.50;0.50;;;;;;;16.03;64.07;97617.13;29395;220;63017;-70
2021/06/13 02:12:43;;;;;;;0.40;0.40;;;;;;;16.07;63.71;97609.13;29395;196;63004;-74
2021/06/13 02:13:16;;;;;;;0.50;0.50;;;;;;;16.09;63.50;97615.91;29395;293;63012;-56
2021/06/13 02:13:50;;;;;;;0.50;0.50;;;;;;;16.12;63.58;97611.72;29395;224;63004;-71
2021/06/13 02:14:23;;;;;;;0.40;0.40;;;;;;;16.12;63.88;97617.22;29395;317;63009;-70
2021/06/13 02:14:56;;;;;;;0.50;0.50;;;;;;;16.12;63.55;97603.53;29394;209;64003;-72
2021/06/13 02:15:29;;;;;;;0.50;0.50;;;;;;;16.18;63.54;97615.97;29395;206;63009;-69
2021/06/13 02:16:02;;;;;;;0.50;0.50;;;;;;;16.17;63.27;97608.88;29395;280;63005;-69
2021/06/13 02:16:34;;;;;;;0.50;0.50;;;;;;;16.18;63.17;97615.16;29394;223;64009;-69
2021/06/13 02:17:07;;;;;;;0.40;0.40;;;;;;;16.18;63.24;97609.69;29395;213;63005;-69
2021/06/13 02:17:42;;;;;;;0.50;0.50;;;;;;;16.18;63.40;97620.63;29394;312;64009;-71
2021/06/13 02:18:15;;;;;;;0.50;0.50;;;;;;;16.18;63.51;97601.47;29395;286;63004;-69
2021/06/13 02:18:48;;;;;;;0.50;0.50;;;;;;;16.20;63.64;97612.91;29395;300;63009;-70
2021/06/13 02:19:23;;;;;;;0.50;0.50;;;;;;;16.20;63.48;97612.91;29395;249;63004;-69
2021/06/13 02:19:55;;;;;;;0.50;0.50;;;;;;;16.20;63.37;97605.50;29395;245;63009;-72
2021/06/13 02:20:29;;;;;;;0.50;0.50;;;;;;;16.20;63.27;97607.44;29395;242;63014;-70
2021/06/13 02:21:05;;;;;;;0.45;0.45;;;;;;;16.19;63.21;97611.31;29395;234;63008;-70
2021/06/13 02:21:40;;;;;;;0.50;0.50;;;;;;;16.20;63.50;97612.91;29395;204;63005;-60
2021/06/13 02:22:16;;;;;;;0.50;0.50;;;;;;;16.26;63.33;97606.19;29395;229;63009;-70
2021/06/13 02:22:48;;;;;;;0.50;0.50;;;;;;;16.27;63.34;97613.28;29394;219;64005;-62
2021/06/13 02:23:24;;;;;;;0.50;0.50;;;;;;;16.26;62.94;97607.00;29394;235;64009;-69
2021/06/13 02:23:57;;;;;;;0.50;0.50;;;;;;;16.26;62.77;97611.69;29395;243;63004;-70
2021/06/13 02:24:37;;;;;;;0.50;0.50;;;;;;;16.24;63.40;97608.44;29395;285;63009;-68
2021/06/13 02:25:10;;;;;;;0.50;0.50;;;;;;;16.23;63.32;97606.81;29395;223;63004;-68
2021/06/13 02:25:41;;;;;;;0.50;0.50;;;;;;;16.23;63.49;97609.56;29395;224;63009;-71
2021/06/13 02:26:14;;;;;;;0.50;0.50;;;;;;;16.21;63.06;97607.13;29395;224;63004;-70
2021/06/13 02:26:46;;;;;;;0.50;0.50;;;;;;;16.21;63.58;97614.53;29395;212;63020;-70
2021/06/13 02:27:27;;;;;;;0.50;0.50;;;;;;;16.20;63.24;97607.44;29395;293;63006;-63
2021/06/13 02:28:01;;;;;;;0.50;0.50;;;;;;;16.20;63.55;97607.44;29416;247;64008;-70
2021/06/13 02:28:47;;;;;;;0.50;0.50;;;;;;;16.21;63.47;97603.59;29395;300;63004;-70
2021/06/13 02:29:19;;;;;;;0.50;0.50;;;;;;;16.20;63.51;97607.44;29395;233;63009;-76
2021/06/13 02:29:50;;;;;;;0.50;0.50;;;;;;;16.22;63.43;97605.22;29395;216;63005;-70
2021/06/13 02:30:24;;;;;;;0.50;0.50;;;;;;;16.21;63.59;97598.09;29395;225;63009;-68
2021/06/13 02:30:57;;;;;;;0.50;0.50;;;;;;;16.20;63.15;97607.44;29395;285;63005;-72
2021/06/13 02:31:31;;;;;;;0.50;0.50;;;;;;;16.21;63.23;97604.41;29394;206;64008;-72
2021/06/13 02:32:05;;;;;;;0.75;0.75;;;;;;;16.23;63.04;97606.81;29395;214;63005;-69
2021/06/13 02:32:41;;;;;;;0.50;0.50;;;;;;;16.20;62.21;97599.22;29395;266;63009;-69
2021/06/13 02:33:15;;;;;;;0.50;0.50;;;;;;;16.20;62.73;97607.44;29394;210;64004;-68
2021/06/13 02:33:47;;;;;;;0.50;0.50;;;;;;;16.19;63.12;97612.12;29395;235;63009;-69
2021/06/13 02:34:23;;;;;;;0.50;0.50;;;;;;;16.18;63.03;97599.53;29394;223;64004;-68
2021/06/13 02:34:55;;;;;;;0.50;0.50;;;;;;;16.19;63.35;97605.81;29395;263;63017;-68
2021/06/13 02:35:27;;;;;;;0.50;0.50;;;;;;;16.19;63.31;97611.31;29395;221;63010;-73
2021/06/13 02:36:04;;;;;;;0.50;0.50;;;;;;;16.20;63.33;97607.44;29395;227;63009;-71
2021/06/13 02:36:37;;;;;;;0.50;0.50;;;;;;;16.21;62.73;97603.59;29395;212;63005;-69
2021/06/13 02:37:09;;;;;;;0.50;0.50;;;;;;;16.20;62.32;97608.25;29395;234;63005;-68
2021/06/13 02:37:43;;;;;;;0.50;0.50;;;;;;;16.20;62.60;97604.72;29395;200;63005;-73
2021/06/13 02:38:16;;;;;;;0.50;0.50;;;;;;;16.19;62.45;97611.31;29395;209;63009;-71
2021/06/13 02:38:48;;;;;;;0.50;0.50;;;;;;;16.21;62.03;97614.53;29395;197;63005;-71
2021/06/13 02:39:20;;;;;;;0.50;0.50;;;;;;;16.21;62.26;97609.88;29394;223;64009;-69
2021/06/13 02:39:53;;;;;;;0.50;0.50;;;;;;;16.20;62.40;97608.25;29394;209;64005;-70
2021/06/13 02:40:25;;;;;;;0.50;0.50;;;;;;;16.21;62.58;97607.13;29395;332;63009;-69
2021/06/13 02:40:56;;;;;;;0.50;0.50;;;;;;;16.21;62.67;97606.31;29395;222;63004;-70
2021/06/13 02:41:27;;;;;;;0.50;0.50;;;;;;;16.21;62.99;97609.06;29395;258;63009;-70
2021/06/13 02:41:59;;;;;;;0.50;0.50;;;;;;;16.20;62.42;97610.19;29395;205;63004;-68
2021/06/13 02:42:30;;;;;;;0.50;0.50;;;;;;;16.17;62.45;97608.06;29394;218;64008;-69
2021/06/13 02:43:02;;;;;;;0.50;0.50;;;;;;;16.16;62.63;97617.41;29395;238;63004;-71
2021/06/13 02:43:33;;;;;;;0.50;0.50;;;;;;;16.16;62.80;97617.41;29395;266;63009;-69
2021/06/13 02:44:05;;;;;;;0.50;0.50;;;;;;;16.15;62.63;97610.31;29395;220;63010;-70
2021/06/13 02:44:36;;;;;;;0.43;0.43;;;;;;;16.15;62.86;97610.31;29394;198;64009;-71
2021/06/13 02:45:12;;;;;;;0.50;0.50;;;;;;;16.16;62.73;97611.91;29395;208;63005;-70
2021/06/13 02:45:45;;;;;;;0.60;0.60;;;;;;;16.14;61.88;97609.50;29395;226;63009;-69
2021/06/13 02:46:20;;;;;;;0.50;0.50;;;;;;;16.13;62.11;97612.53;29395;276;63005;-68
2021/06/13 02:46:51;;;;;;;0.50;0.50;;;;;;;16.12;62.32;97613.66;29395;354;63009;-69